createdAt,value
2022-11-05T00:23:13.546Z,49.21
2022-11-05T01:09:26.554Z,50.63
2022-11-05T01:11:55.225Z,49.57
2022-11-05T01:14:22.970Z,49.91
2022-11-05T01:16:50.584Z,50.01
2022-11-05T01:19:18.143Z,49.34
2022-11-05T01:21:44.966Z,49.22
2022-11-05T01:24:11.771Z,48.95
2022-11-05T01:26:41.072Z,49.45
2022-11-05T01:29:08.130Z,48.47
2022-11-05T01:31:37.270Z,48.57
2022-11-05T01:34:06.826Z,49.29
2022-11-05T01:36:33.645Z,49.75
2022-11-05T01:39:00.938Z,49.47
2022-11-05T01:41:27.508Z,49.66
2022-11-05T01:43:55.108Z,50.46
2022-11-05T01:46:21.669Z,52.18
2022-11-05T01:48:48.927Z,51.50
2022-11-05T01:51:22.703Z,50.54
2022-11-05T01:53:56.737Z,50.22
2022-11-05T01:56:23.587Z,50.36
2022-11-05T01:58:50.315Z,50.21
2022-11-05T02:01:17.125Z,49.83
2022-11-05T02:03:44.040Z,50.11
2022-11-05T02:06:17.647Z,51.82
2022-11-05T02:08:44.466Z,52.59
2022-11-05T02:11:11.806Z,51.10
2022-11-05T02:13:40.607Z,50.83
2022-11-05T02:16:07.889Z,51.98
2022-11-05T02:18:34.761Z,52.15
2022-11-05T02:21:02.113Z,52.71
2022-11-05T02:23:28.978Z,53.54
2022-11-05T02:25:55.940Z,55.24
2022-11-05T02:28:22.976Z,56.30
2022-11-05T02:30:50.382Z,55.87
2022-11-05T02:33:16.979Z,58.37
2022-11-05T02:35:48.157Z,58.89
2022-11-05T02:38:15.051Z,59.25
2022-11-05T02:40:42.067Z,58.74
2022-11-05T02:43:09.906Z,58.51
2022-11-05T02:45:36.679Z,60.38
2022-11-05T02:48:06.039Z,62.30
2022-11-05T02:50:32.985Z,63.03
2022-11-05T02:52:59.919Z,63.63
2022-11-05T02:55:38.161Z,63.99
2022-11-05T02:58:04.951Z,63.28
2022-11-05T03:00:38.968Z,63.04
2022-11-05T03:03:05.926Z,63.32
2022-11-05T03:05:32.767Z,64.75
2022-11-05T03:08:06.889Z,63.46
2022-11-05T03:10:40.867Z,63.47
2022-11-05T03:13:08.218Z,64.33
2022-11-05T03:15:35.089Z,63.04
2022-11-05T03:18:01.653Z,61.77
2022-11-05T03:20:28.389Z,62.32
2022-11-05T03:22:55.146Z,63.95
2022-11-05T03:25:23.769Z,61.42
2022-11-05T03:27:51.026Z,60.04
2022-11-05T03:30:18.377Z,60.57
2022-11-05T03:32:52.639Z,60.59
2022-11-05T03:35:21.097Z,58.12
2022-11-05T03:37:47.937Z,59.78
2022-11-05T03:40:15.247Z,60.26
2022-11-05T03:42:45.226Z,60.57
2022-11-05T03:45:13.445Z,59.59
2022-11-05T03:47:41.819Z,59.85
2022-11-05T03:50:08.614Z,59.97
2022-11-05T03:52:35.440Z,59.43
2022-11-05T03:55:02.312Z,58.87
2022-11-05T03:57:29.664Z,59.75
2022-11-05T03:59:56.548Z,60.49
2022-11-05T04:02:23.915Z,59.45
2022-11-05T04:04:53.230Z,58.99
2022-11-05T04:07:19.819Z,58.59
2022-11-05T04:09:47.397Z,58.89
2022-11-05T04:12:14.239Z,58.12
2022-11-05T04:15:00.873Z,56.78
2022-11-05T04:17:37.627Z,56.25
2022-11-05T04:20:04.448Z,55.88
2022-11-05T04:22:30.970Z,56.01
2022-11-05T04:24:58.817Z,56.05
2022-11-05T04:27:26.156Z,55.55
2022-11-05T04:29:54.428Z,55.71
2022-11-05T04:32:21.101Z,54.95
2022-11-05T04:34:48.419Z,53.79
2022-11-05T04:37:22.525Z,54.07
2022-11-05T04:39:49.098Z,53.38
2022-11-05T04:42:15.925Z,53.65
2022-11-05T04:44:42.741Z,53.27
2022-11-05T04:47:09.287Z,53.65
2022-11-05T04:49:37.730Z,53.14
2022-11-05T04:52:04.305Z,53.39
2022-11-05T04:54:31.296Z,53.61
2022-11-05T04:56:58.212Z,53.43
2022-11-05T04:59:25.178Z,52.97
2022-11-05T05:01:52.796Z,53.24
2022-11-05T05:04:20.265Z,53.90
2022-11-05T05:06:47.675Z,52.57
2022-11-05T05:09:15.131Z,52.17
2022-11-05T05:11:42.455Z,51.46
2022-11-05T05:14:09.270Z,51.88
2022-11-05T05:16:36.662Z,51.92
2022-11-05T05:19:03.509Z,51.85
2022-11-05T05:21:30.948Z,53.20
2022-11-05T05:23:57.828Z,51.79
2022-11-05T05:26:24.651Z,51.74
2022-11-05T05:28:58.845Z,51.34
2022-11-05T05:31:26.392Z,52.95
2022-11-05T05:33:53.552Z,53.29
2022-11-05T05:36:21.093Z,52.29
2022-11-05T05:38:47.880Z,52.30
2022-11-05T05:41:15.457Z,53.55
2022-11-05T05:43:42.732Z,56.13
2022-11-05T05:46:09.480Z,58.39
2022-11-05T05:48:43.518Z,58.31
2022-11-05T05:51:10.684Z,59.67
2022-11-05T05:53:37.573Z,58.67
2022-11-05T05:56:06.790Z,57.54
2022-11-05T06:04:50.497Z,58.04
2022-11-05T06:07:24.826Z,61.29
2022-11-05T06:09:51.789Z,61.17
2022-11-05T06:12:20.638Z,60.63
2022-11-05T06:14:49.118Z,58.39
2022-11-05T06:17:16.442Z,57.07
2022-11-05T06:19:43.288Z,58.54
2022-11-05T06:22:10.211Z,58.94
2022-11-05T06:24:38.598Z,59.75
2022-11-05T06:27:06.913Z,59.83
2022-11-05T06:54:25.941Z,61.14
2022-11-05T07:00:50.901Z,61.07
2022-11-05T07:03:25.320Z,61.61
2022-11-05T07:05:53.473Z,63.00
2022-11-05T07:08:20.352Z,61.76
2022-11-05T07:10:50.401Z,61.68
2022-11-05T07:13:21.112Z,62.08
2022-11-05T07:15:48.070Z,63.08
2022-11-05T07:18:15.374Z,61.43
2022-11-05T07:20:42.787Z,62.71
2022-11-05T07:23:10.655Z,62.92
2022-11-05T07:25:37.787Z,62.06
2022-11-05T07:28:05.334Z,59.21
2022-11-05T07:30:32.437Z,57.90
2022-11-05T07:33:13.239Z,59.82
2022-11-05T07:35:42.236Z,60.97
2022-11-05T07:38:09.166Z,60.55
2022-11-05T07:40:36.022Z,59.05
2022-11-05T07:43:03.082Z,56.73
2022-11-05T07:45:30.685Z,56.24
2022-11-05T07:47:58.377Z,56.03
2022-11-05T07:50:27.096Z,57.51
2022-11-05T07:52:53.967Z,57.21
2022-11-05T07:55:34.600Z,58.49
2022-11-05T07:58:01.620Z,59.43
2022-11-05T08:00:29.048Z,58.71
2022-11-05T08:02:55.813Z,61.13
2022-11-05T08:05:26.313Z,60.90
2022-11-05T08:07:53.024Z,59.42
2022-11-05T08:10:25.221Z,57.72
2022-11-05T08:12:53.055Z,57.16
2022-11-05T08:15:20.065Z,60.19
2022-11-05T08:17:49.231Z,60.09
2022-11-05T08:20:17.438Z,56.94
2022-11-05T08:22:44.543Z,57.48
2022-11-05T08:25:11.957Z,55.90
2022-11-05T08:27:42.534Z,55.21
2022-11-05T08:30:12.840Z,54.54
2022-11-05T08:32:44.101Z,55.58
2022-11-05T08:35:12.947Z,55.54
2022-11-05T08:37:40.409Z,53.16
2022-11-05T08:40:07.673Z,54.69
2022-11-05T08:42:34.593Z,56.20
2022-11-05T08:45:01.759Z,55.11
2022-11-05T08:47:29.555Z,54.50
2022-11-05T08:49:56.341Z,54.58
2022-11-05T08:52:24.071Z,53.79
2022-11-05T08:54:53.037Z,53.95
2022-11-05T08:57:24.995Z,54.74
2022-11-05T08:59:51.749Z,54.76
2022-11-05T09:02:18.735Z,56.75
2022-11-05T09:04:48.587Z,55.34
2022-11-05T09:07:16.097Z,55.02
2022-11-05T09:09:42.830Z,53.44
2022-11-05T09:12:12.576Z,54.66
2022-11-05T09:14:40.591Z,55.84
2022-11-05T09:17:07.842Z,53.89
2022-11-05T09:19:39.630Z,54.89
2022-11-05T09:22:06.812Z,53.79
2022-11-05T09:24:33.771Z,54.53
2022-11-05T09:27:02.057Z,55.05
2022-11-05T09:29:28.590Z,56.48
2022-11-05T09:32:03.706Z,55.49
2022-11-05T09:34:31.467Z,55.47
2022-11-05T09:36:58.838Z,54.08
2022-11-05T09:39:30.093Z,54.26
2022-11-05T09:41:59.115Z,54.93
2022-11-05T09:44:26.681Z,53.12
2022-11-05T09:46:53.710Z,52.63
2022-11-05T09:49:20.278Z,52.63
2022-11-05T09:55:03.517Z,51.12
2022-11-05T09:57:32.095Z,49.85
2022-11-05T10:00:00.083Z,49.93
2022-11-05T10:02:28.692Z,50.19
2022-11-05T10:04:56.389Z,48.21
2022-11-05T10:07:23.670Z,48.07
2022-11-05T10:10:24.967Z,47.97
2022-11-05T10:13:00.773Z,47.63
2022-11-05T10:15:28.386Z,47.25
2022-11-05T10:20:39.797Z,48.40
2022-11-05T10:23:10.746Z,48.38
2022-11-05T10:25:39.107Z,48.08
2022-11-05T10:28:13.664Z,46.12
2022-11-05T10:30:48.893Z,47.21
2022-11-05T10:36:00.590Z,46.48
2022-11-05T10:38:29.028Z,46.11
2022-11-05T10:49:42.892Z,50.29
2022-11-05T10:52:10.662Z,48.42
2022-11-05T10:54:40.745Z,47.82
2022-11-05T10:57:11.243Z,48.99
2022-11-05T10:59:38.239Z,48.00
2022-11-05T11:04:47.276Z,49.04
2022-11-05T11:07:15.234Z,52.81
2022-11-05T11:09:42.214Z,50.79
2022-11-05T11:12:09.975Z,49.08
2022-11-05T11:14:37.587Z,47.58
2022-11-05T11:17:05.375Z,46.89
2022-11-05T11:19:36.256Z,47.35
2022-11-05T11:22:05.318Z,46.48
2022-11-05T11:24:35.683Z,46.12
2022-11-05T11:27:02.427Z,46.34
2022-11-05T11:29:30.043Z,45.61
2022-11-05T11:32:07.677Z,47.79
2022-11-05T11:34:37.763Z,47.78
2022-11-05T11:37:05.591Z,46.51
2022-11-05T11:39:33.185Z,46.37
2022-11-05T11:42:00.140Z,46.29
2022-11-05T11:47:10.229Z,45.20
2022-11-05T11:49:39.995Z,45.92
2022-11-05T11:52:07.401Z,47.02
2022-11-05T11:54:34.535Z,47.50
2022-11-05T11:57:15.294Z,47.69
2022-11-05T12:00:07.667Z,47.49
2022-11-05T12:02:33.984Z,47.79
2022-11-05T12:05:02.117Z,46.70
2022-11-05T12:07:29.184Z,45.96
2022-11-05T12:09:58.654Z,46.11
2022-11-05T12:12:29.088Z,46.05
2022-11-05T12:14:56.684Z,46.71
2022-11-05T12:17:23.531Z,47.85
2022-11-05T12:19:50.520Z,48.50
2022-11-05T12:22:19.440Z,47.68
2022-11-05T12:24:49.383Z,48.14
2022-11-05T12:29:57.895Z,46.02
2022-11-05T12:32:25.625Z,45.81
2022-11-05T12:34:56.557Z,44.17
2022-11-05T12:37:23.438Z,46.00
2022-11-05T12:39:57.913Z,44.41
2022-11-05T12:42:29.619Z,45.23
2022-11-05T12:44:57.767Z,45.00
2022-11-05T12:47:26.899Z,44.61
2022-11-05T12:49:53.792Z,42.85
2022-11-05T12:52:20.642Z,44.56
2022-11-05T12:54:48.224Z,46.70
2022-11-05T12:57:15.075Z,46.20
2022-11-05T12:59:42.527Z,44.96
2022-11-05T13:02:10.325Z,45.48
2022-11-05T13:04:43.387Z,45.75
2022-11-05T13:07:12.946Z,46.45
2022-11-05T13:09:43.481Z,48.03
2022-11-05T13:12:15.102Z,49.23
2022-11-05T13:14:41.853Z,48.25
2022-11-05T13:17:08.731Z,50.35
2022-11-05T13:19:37.247Z,49.98
2022-11-05T13:22:04.221Z,49.80
2022-11-05T13:24:32.332Z,48.51
2022-11-05T13:27:06.994Z,48.75
2022-11-05T13:29:34.499Z,50.11
2022-11-05T13:32:03.292Z,49.12
2022-11-05T13:34:37.287Z,49.50
2022-11-05T13:37:08.775Z,48.72
2022-11-05T13:42:30.416Z,49.42
2022-11-05T13:44:57.355Z,50.21
2022-11-05T13:47:26.530Z,48.66
2022-11-05T13:49:56.918Z,47.57
2022-11-05T13:52:24.043Z,47.86
2022-11-05T13:54:53.764Z,48.39
2022-11-05T13:57:22.586Z,47.91
2022-11-05T13:59:50.395Z,48.44
2022-11-05T14:02:17.388Z,47.83
2022-11-05T14:04:44.116Z,49.25
2022-11-05T14:07:11.018Z,48.43
2022-11-05T14:09:38.378Z,48.94
2022-11-05T14:12:05.909Z,47.57
2022-11-05T14:14:36.816Z,48.64
2022-11-05T14:17:07.214Z,48.21
2022-11-05T14:19:34.727Z,46.34
2022-11-05T14:22:03.200Z,45.90
2022-11-05T14:24:30.984Z,47.44
2022-11-05T14:26:59.677Z,48.33
2022-11-05T14:29:28.469Z,47.71
2022-11-05T14:32:08.728Z,48.10
2022-11-05T14:34:36.028Z,47.90
2022-11-05T14:37:02.943Z,48.52
2022-11-05T14:39:30.086Z,47.53
2022-11-05T14:41:59.165Z,47.18
2022-11-05T14:44:26.546Z,46.60
2022-11-05T14:46:56.269Z,45.46
2022-11-05T14:49:24.665Z,46.16
2022-11-05T14:51:51.623Z,46.62
2022-11-05T14:57:11.777Z,47.29
2022-11-05T14:59:39.737Z,48.24
2022-11-05T15:02:06.761Z,47.54
2022-11-05T15:04:37.400Z,45.24
2022-11-05T15:07:15.775Z,47.30
2022-11-05T15:09:50.867Z,46.67
2022-11-05T15:12:21.610Z,47.15
2022-11-05T15:17:33.292Z,46.93
2022-11-05T15:26:34.497Z,45.26
2022-11-05T15:29:40.583Z,46.82
2022-11-05T15:31:58.074Z,48.30
2022-11-05T15:34:24.949Z,47.71
2022-11-05T15:36:51.760Z,47.21
2022-11-05T15:42:35.658Z,47.66
2022-11-05T15:45:06.464Z,48.58
2022-11-05T15:50:38.734Z,51.21
2022-11-05T15:53:28.326Z,52.39
2022-11-05T15:56:00.303Z,52.81
2022-11-05T16:01:17.608Z,54.30
2022-11-05T16:03:47.688Z,53.57
2022-11-05T16:06:15.775Z,52.53
2022-11-05T16:08:43.349Z,52.56
2022-11-05T16:13:39.510Z,52.07
2022-11-05T16:16:06.446Z,52.63
2022-11-05T16:18:34.310Z,52.84
2022-11-05T16:21:01.227Z,53.57
2022-11-05T16:23:33.144Z,53.12
2022-11-05T16:26:02.451Z,52.93
2022-11-05T16:28:31.075Z,53.14
2022-11-05T16:31:00.121Z,53.68
2022-11-05T16:36:42.575Z,53.29
2022-11-05T16:39:10.404Z,53.47
2022-11-05T16:41:40.236Z,53.73
2022-11-05T16:44:13.552Z,53.13
2022-11-05T16:46:45.207Z,52.32
2022-11-05T16:49:14.589Z,52.49
2022-11-05T16:51:55.668Z,53.82
2022-11-05T16:54:38.801Z,53.28
2022-11-05T16:57:08.427Z,52.68
2022-11-05T16:59:35.929Z,52.45
2022-11-05T17:02:03.103Z,51.94
2022-11-05T17:07:41.322Z,53.61
2022-11-05T17:10:09.362Z,54.66
2022-11-05T17:16:00.382Z,54.53
2022-11-05T17:18:37.327Z,54.46
2022-11-05T17:40:10.007Z,53.75
2022-11-05T17:55:19.370Z,56.70
2022-11-05T18:07:12.606Z,55.52
2022-11-05T18:21:17.441Z,53.47
2022-11-05T18:26:15.699Z,53.60
2022-11-05T18:31:29.425Z,54.86
2022-11-05T18:33:58.678Z,54.15
2022-11-05T18:36:27.332Z,54.13
2022-11-05T18:38:55.218Z,54.57
2022-11-05T18:41:25.833Z,54.68
2022-11-05T18:43:56.369Z,55.83
2022-11-05T18:46:51.327Z,55.07
2022-11-05T18:49:12.349Z,55.68
2022-11-05T18:51:46.433Z,55.04
2022-11-05T18:54:19.402Z,54.17
2022-11-05T18:56:48.469Z,55.01
2022-11-05T19:02:07.187Z,54.21
2022-11-05T19:04:35.541Z,54.69
2022-11-05T19:10:23.419Z,54.18
2022-11-05T19:12:50.056Z,54.12
2022-11-05T19:15:22.401Z,53.67
2022-11-05T19:17:49.941Z,52.77
2022-11-05T19:20:20.691Z,52.46
2022-11-05T19:22:47.893Z,52.23
2022-11-05T19:25:14.531Z,52.96
2022-11-05T19:30:32.537Z,52.35
2022-11-05T19:33:04.503Z,51.42
2022-11-05T19:35:32.914Z,53.34
2022-11-05T19:38:01.619Z,53.78
2022-11-05T19:40:29.265Z,53.41
2022-11-05T19:43:04.672Z,51.77
2022-11-05T19:45:49.069Z,50.51
2022-11-05T19:48:19.832Z,51.04
2022-11-05T19:50:49.795Z,50.02
2022-11-05T19:53:16.931Z,49.31
2022-11-05T19:55:46.193Z,48.47
2022-11-05T19:58:13.543Z,46.51
2022-11-05T20:00:42.572Z,45.67
2022-11-05T20:06:11.221Z,46.45
2022-11-05T20:09:15.292Z,46.13
2022-11-05T20:11:41.554Z,45.05
2022-11-05T20:14:08.933Z,46.13
2022-11-05T20:16:44.842Z,46.71
2022-11-05T20:22:05.151Z,50.45
2022-11-05T20:24:33.033Z,49.75
2022-11-05T20:29:42.362Z,50.50
2022-11-05T20:32:19.064Z,50.05
2022-11-05T20:34:47.174Z,49.54
2022-11-05T20:37:17.061Z,47.58
2022-11-05T20:39:44.893Z,47.95
2022-11-05T20:42:17.913Z,48.96
2022-11-05T20:47:36.978Z,46.82
2022-11-05T20:50:04.624Z,45.58
2022-11-05T20:55:48.910Z,47.21
2022-11-05T20:58:22.396Z,47.48
2022-11-05T21:00:50.466Z,46.10
2022-11-05T21:06:27.616Z,48.94
2022-11-05T21:08:55.975Z,49.80
2022-11-05T21:11:25.044Z,50.27
2022-11-05T21:13:52.744Z,50.74
2022-11-05T21:21:50.917Z,52.13
2022-11-05T21:37:06.116Z,51.47
2022-11-05T21:59:33.687Z,54.54
2022-11-05T22:05:23.905Z,51.43
2022-11-05T22:07:52.555Z,51.31
